createdAt,value
2022-11-28T00:00:39.069Z,5.81
2022-11-28T00:01:39.066Z,5.97
2022-11-28T00:02:39.224Z,5.89
2022-11-28T00:03:39.174Z,5.82
2022-11-28T00:04:39.163Z,5.89
2022-11-28T00:05:43.017Z,5.94
2022-11-28T00:06:39.065Z,5.95
2022-11-28T00:07:39.136Z,5.98
2022-11-28T00:08:39.087Z,5.98
2022-11-28T00:09:39.065Z,6.09
2022-11-28T00:10:39.064Z,6.08
2022-11-28T00:11:39.061Z,5.84
2022-11-28T00:12:39.096Z,5.65
2022-11-28T00:13:39.089Z,5.77
2022-11-28T00:14:39.187Z,5.85
2022-11-28T00:15:39.147Z,5.81
2022-11-28T00:16:39.067Z,5.85
2022-11-28T00:17:39.074Z,5.98
2022-11-28T00:18:39.085Z,5.92
2022-11-28T00:19:39.081Z,5.82
2022-11-28T00:20:39.065Z,5.67
2022-11-28T00:21:39.068Z,5.8
2022-11-28T00:22:39.065Z,5.8
2022-11-28T00:23:39.090Z,5.77
2022-11-28T00:24:39.076Z,5.75
2022-11-28T00:25:39.065Z,5.86
2022-11-28T00:26:39.071Z,5.69
2022-11-28T00:27:39.086Z,5.69
2022-11-28T00:28:39.087Z,5.78
2022-11-28T00:29:39.066Z,5.78
2022-11-28T00:30:39.083Z,5.8
2022-11-28T00:31:39.105Z,5.84
2022-11-28T00:32:39.068Z,5.64
2022-11-28T00:33:39.087Z,5.7
2022-11-28T00:34:39.254Z,5.7
2022-11-28T00:35:39.068Z,5.86
2022-11-28T00:36:39.067Z,5.88
2022-11-28T00:37:39.086Z,6.02
2022-11-28T00:38:39.121Z,5.99
2022-11-28T00:39:39.075Z,6.01
2022-11-28T00:40:39.065Z,5.84
2022-11-28T00:41:39.066Z,5.79
2022-11-28T00:42:39.088Z,5.77
2022-11-28T00:43:39.080Z,5.76
2022-11-28T00:44:39.084Z,5.7
2022-11-28T00:45:39.125Z,5.7
2022-11-28T00:46:39.067Z,5.8
2022-11-28T00:47:39.068Z,6
2022-11-28T00:48:39.081Z,5.76
2022-11-28T00:49:39.065Z,5.76
2022-11-28T00:50:39.065Z,6
2022-11-28T00:51:39.060Z,5.91
2022-11-28T00:52:39.065Z,5.83
2022-11-28T00:53:39.084Z,5.88
2022-11-28T00:54:39.162Z,5.84
2022-11-28T00:55:39.061Z,5.67
2022-11-28T00:56:39.063Z,5.72
2022-11-28T00:57:39.163Z,5.82
2022-11-28T00:58:39.070Z,5.8
2022-11-28T00:59:39.059Z,5.95
2022-11-28T01:00:39.199Z,5.99
2022-11-28T01:01:39.124Z,6.03
2022-11-28T01:02:39.111Z,5.93
2022-11-28T01:03:39.084Z,5.96
2022-11-28T01:04:39.178Z,6.05
2022-11-28T01:05:39.060Z,5.86
2022-11-28T01:06:39.064Z,5.88
2022-11-28T01:07:39.107Z,5.84
2022-11-28T01:08:39.088Z,5.88
2022-11-28T01:09:39.065Z,5.87
2022-11-28T01:10:39.058Z,5.93
2022-11-28T01:11:39.073Z,5.81
2022-11-28T01:12:39.073Z,6.07
2022-11-28T01:13:39.081Z,5.91
2022-11-28T01:14:39.143Z,5.97
2022-11-28T01:15:39.061Z,6.19
2022-11-28T01:16:39.162Z,6.05
2022-11-28T01:17:39.065Z,6.01
2022-11-28T01:18:39.086Z,5.9
2022-11-28T01:19:39.085Z,5.82
2022-11-28T01:20:39.070Z,5.77
2022-11-28T01:21:39.066Z,6
2022-11-28T01:22:39.069Z,5.9
2022-11-28T01:23:39.085Z,5.95
2022-11-28T01:24:39.212Z,5.99
2022-11-28T01:25:39.071Z,5.81
2022-11-28T01:26:39.061Z,5.95
2022-11-28T01:27:39.078Z,5.93
2022-11-28T01:28:39.080Z,5.81
2022-11-28T01:29:39.071Z,5.9
2022-11-28T01:30:39.075Z,5.87
2022-11-28T01:31:39.161Z,6.04
2022-11-28T01:32:39.072Z,5.8
2022-11-28T01:33:39.080Z,5.92
2022-11-28T01:34:39.201Z,5.79
2022-11-28T01:35:39.063Z,5.86
2022-11-28T01:36:39.064Z,5.85
2022-11-28T01:37:39.066Z,5.76
2022-11-28T01:38:39.077Z,5.76
2022-11-28T01:39:39.067Z,5.74
2022-11-28T01:40:39.066Z,5.81
2022-11-28T01:41:39.073Z,6.08
2022-11-28T01:42:39.066Z,6.04
2022-11-28T01:43:39.086Z,5.81
2022-11-28T01:44:39.174Z,5.62
2022-11-28T01:45:39.067Z,5.74
2022-11-28T01:46:39.090Z,5.81
2022-11-28T01:47:39.067Z,5.71
2022-11-28T01:48:39.085Z,5.49
2022-11-28T01:49:39.065Z,5.66
2022-11-28T01:50:39.067Z,5.69
2022-11-28T01:51:39.061Z,5.63
2022-11-28T01:52:39.069Z,5.69
2022-11-28T01:53:39.083Z,5.74
2022-11-28T01:54:39.124Z,5.76
2022-11-28T01:55:39.063Z,5.7
2022-11-28T01:56:39.058Z,5.68
2022-11-28T01:57:39.066Z,5.62
2022-11-28T01:58:39.088Z,5.87
2022-11-28T01:59:39.062Z,5.87
2022-11-28T02:00:39.172Z,5.71
2022-11-28T02:01:39.111Z,5.77
2022-11-28T02:02:39.121Z,5.53
2022-11-28T02:03:39.085Z,5.67
2022-11-28T02:04:39.110Z,5.82
2022-11-28T02:05:39.063Z,5.64
2022-11-28T02:06:39.060Z,5.76
2022-11-28T02:07:39.115Z,5.8
2022-11-28T02:08:39.086Z,5.86
2022-11-28T02:09:39.062Z,5.94
2022-11-28T02:10:39.130Z,6.02
2022-11-28T02:11:39.058Z,5.72
2022-11-28T02:12:39.058Z,5.81
2022-11-28T02:13:39.097Z,5.84
2022-11-28T02:14:39.144Z,5.81
2022-11-28T02:15:39.066Z,5.77
2022-11-28T02:16:39.139Z,5.87
2022-11-28T02:17:39.066Z,6.01
2022-11-28T02:18:39.070Z,5.77
2022-11-28T02:19:39.061Z,5.8
2022-11-28T02:20:39.061Z,5.71
2022-11-28T02:21:39.057Z,5.79
2022-11-28T02:22:39.066Z,5.95
2022-11-28T02:23:39.154Z,5.96
2022-11-28T02:24:39.313Z,6.07
2022-11-28T02:25:39.072Z,5.82
2022-11-28T02:26:39.067Z,5.82
2022-11-28T02:27:39.063Z,5.96
2022-11-28T02:28:39.084Z,5.97
2022-11-28T02:29:39.161Z,6.04
2022-11-28T02:30:39.075Z,6.04
2022-11-28T02:31:39.196Z,5.95
2022-11-28T02:32:39.065Z,5.81
2022-11-28T02:33:39.073Z,5.82
2022-11-28T02:34:42.063Z,6.03
2022-11-28T02:35:39.064Z,6
2022-11-28T02:36:39.064Z,5.69
2022-11-28T02:37:39.066Z,6.01
2022-11-28T02:38:39.072Z,6.07
2022-11-28T02:39:39.078Z,6.05
2022-11-28T02:40:39.068Z,5.65
2022-11-28T02:41:39.069Z,5.49
2022-11-28T02:42:39.065Z,5.79
2022-11-28T02:43:39.083Z,5.94
2022-11-28T02:44:39.098Z,5.71
2022-11-28T02:45:39.064Z,5.82
2022-11-28T02:46:39.107Z,5.82
2022-11-28T02:47:39.067Z,5.84
2022-11-28T02:48:39.067Z,5.83
2022-11-28T02:49:39.076Z,5.59
2022-11-28T02:50:39.062Z,5.59
2022-11-28T02:51:39.055Z,5.81
2022-11-28T02:52:39.078Z,5.79
2022-11-28T02:53:39.063Z,5.73
2022-11-28T02:54:39.175Z,5.71
2022-11-28T02:55:39.063Z,5.49
2022-11-28T02:56:39.063Z,5.46
2022-11-28T02:57:39.093Z,5.28
2022-11-28T02:58:39.257Z,5.15
2022-11-28T02:59:39.083Z,5.35
2022-11-28T03:00:39.162Z,5.45
2022-11-28T03:01:39.131Z,5.52
2022-11-28T03:02:39.060Z,5.33
2022-11-28T03:03:39.074Z,5.38
2022-11-28T03:04:39.076Z,5.53
2022-11-28T03:05:39.051Z,5.5
2022-11-28T03:06:39.066Z,5.59
2022-11-28T03:07:39.163Z,5.65
2022-11-28T03:08:39.051Z,5.58
2022-11-28T03:09:39.078Z,5.76
2022-11-28T03:10:39.056Z,5.62
2022-11-28T03:11:39.058Z,5.64
2022-11-28T03:12:39.062Z,5.64
2022-11-28T03:13:39.074Z,5.64
2022-11-28T03:14:39.224Z,5.72
2022-11-28T03:15:39.066Z,5.83
2022-11-28T03:16:39.219Z,5.89
2022-11-28T03:17:39.059Z,5.89
2022-11-28T03:18:39.058Z,5.72
2022-11-28T03:19:39.079Z,5.71
2022-11-28T03:20:39.055Z,5.77
2022-11-28T03:21:39.055Z,5.73
2022-11-28T03:22:39.054Z,5.28
2022-11-28T03:23:39.056Z,5.48
2022-11-28T03:24:39.150Z,5.5
2022-11-28T03:25:39.055Z,5.47
2022-11-28T03:26:39.049Z,5.37
2022-11-28T03:27:39.056Z,5.27
2022-11-28T03:28:43.439Z,5.53
2022-11-28T03:29:39.080Z,5.61
2022-11-28T03:30:39.055Z,5.51
2022-11-28T03:31:39.087Z,5.58
2022-11-28T03:32:39.064Z,5.43
2022-11-28T03:33:39.057Z,5.19
2022-11-28T03:34:39.070Z,5.38
2022-11-28T03:35:39.052Z,5.43
2022-11-28T03:36:39.060Z,5.62
2022-11-28T03:37:39.062Z,5.62
2022-11-28T03:38:39.050Z,5.56
2022-11-28T03:39:39.078Z,5.72
2022-11-28T03:40:39.055Z,5.85
2022-11-28T03:41:39.067Z,5.82
2022-11-28T03:42:39.055Z,5.82
2022-11-28T03:43:39.072Z,6.04
2022-11-28T03:44:39.071Z,5.79
2022-11-28T03:45:39.069Z,5.79
2022-11-28T03:46:39.125Z,5.59
2022-11-28T03:47:39.060Z,5.57
2022-11-28T03:48:39.066Z,5.57
2022-11-28T03:49:39.069Z,5.3
2022-11-28T03:50:39.066Z,5.37
2022-11-28T03:51:39.067Z,5.39
2022-11-28T03:52:39.071Z,5.44
2022-11-28T03:53:39.069Z,5.45
2022-11-28T03:54:39.076Z,5.53
2022-11-28T03:55:39.139Z,5.73
2022-11-28T03:56:39.095Z,5.95
2022-11-28T03:57:39.084Z,5.67
2022-11-28T03:58:39.064Z,5.59
2022-11-28T03:59:39.082Z,5.72
2022-11-28T04:00:39.058Z,5.55
2022-11-28T04:01:39.120Z,5.33
2022-11-28T04:02:39.179Z,5.33
2022-11-28T04:03:39.063Z,5.66
2022-11-28T04:04:39.082Z,5.47
2022-11-28T04:05:39.067Z,5.63
2022-11-28T04:06:39.067Z,5.5
2022-11-28T04:07:39.153Z,5.3
2022-11-28T04:08:39.062Z,5.46
2022-11-28T04:09:39.080Z,5.27
2022-11-28T04:10:39.061Z,5.13
2022-11-28T04:11:39.055Z,5.28
2022-11-28T04:12:39.061Z,5.41
2022-11-28T04:13:39.061Z,5.52
2022-11-28T04:14:39.073Z,5.2
2022-11-28T04:15:39.096Z,5.21
2022-11-28T04:16:39.230Z,5.37
2022-11-28T04:17:39.064Z,5.17
2022-11-28T04:18:39.064Z,5.25
2022-11-28T04:19:39.081Z,5.31
2022-11-28T04:20:39.072Z,5.6
2022-11-28T04:21:39.056Z,5.6
2022-11-28T04:22:39.071Z,5.63
2022-11-28T04:23:39.060Z,5.74
2022-11-28T04:24:39.079Z,5.6
2022-11-28T04:25:39.050Z,5.47
2022-11-28T04:26:39.054Z,5.34
2022-11-28T04:27:39.064Z,5.07
2022-11-28T04:28:39.051Z,5.35
2022-11-28T04:29:39.075Z,5.27
2022-11-28T04:30:39.050Z,5.2
2022-11-28T04:31:39.083Z,5.25
2022-11-28T04:32:39.060Z,5.24
2022-11-28T04:33:39.140Z,5.24
2022-11-28T04:34:39.069Z,5.55
2022-11-28T04:35:39.052Z,5.72
2022-11-28T04:36:39.109Z,5.59
2022-11-28T04:37:39.055Z,5.42
2022-11-28T04:38:39.049Z,5.33
2022-11-28T04:39:39.077Z,5.34
2022-11-28T04:40:39.053Z,5.27
2022-11-28T04:41:39.059Z,5.15
2022-11-28T04:42:39.054Z,5.47
2022-11-28T04:43:39.091Z,5.41
2022-11-28T04:44:39.082Z,5.35
2022-11-28T04:45:39.123Z,5.39
2022-11-28T04:46:39.065Z,5.26
2022-11-28T04:47:39.062Z,5.41
2022-11-28T04:48:39.064Z,5.6
2022-11-28T04:49:39.070Z,5.6
2022-11-28T04:50:39.066Z,5.65
2022-11-28T04:51:39.067Z,5.53
2022-11-28T04:52:39.060Z,5.61
2022-11-28T04:53:39.062Z,5.61
2022-11-28T04:54:39.081Z,5.43
2022-11-28T04:55:39.050Z,5.26
2022-11-28T04:56:39.061Z,5.07
2022-11-28T04:57:39.072Z,5.22
2022-11-28T04:58:39.061Z,5.13
2022-11-28T04:59:39.093Z,5.44
2022-11-28T05:00:39.100Z,5.45
2022-11-28T05:01:39.122Z,5.47
2022-11-28T05:02:39.136Z,5.64
2022-11-28T05:03:42.419Z,5.64
2022-11-28T05:04:39.069Z,5.74
2022-11-28T05:05:39.071Z,5.77
2022-11-28T05:06:39.054Z,5.81
2022-11-28T05:07:39.132Z,6.03
2022-11-28T05:08:39.059Z,6.01
2022-11-28T05:09:39.073Z,5.9
2022-11-28T05:10:39.061Z,5.92
2022-11-28T05:11:39.064Z,5.77
2022-11-28T05:12:39.068Z,5.68
2022-11-28T05:13:39.065Z,5.68
2022-11-28T05:14:39.185Z,5.64
2022-11-28T05:15:39.062Z,5.92
2022-11-28T05:16:39.134Z,6.11
2022-11-28T05:17:41.965Z,6.19
2022-11-28T05:18:39.057Z,5.86
2022-11-28T05:19:39.084Z,5.86
2022-11-28T05:20:39.071Z,5.94
2022-11-28T05:21:39.055Z,5.79
2022-11-28T05:22:39.068Z,5.45
2022-11-28T05:23:39.065Z,5.56
2022-11-28T05:24:39.083Z,5.3
2022-11-28T05:25:39.075Z,5.69
2022-11-28T05:26:39.054Z,5.74
2022-11-28T05:27:39.062Z,5.8
2022-11-28T05:28:39.057Z,5.84
2022-11-28T05:29:39.088Z,5.81
2022-11-28T05:30:39.052Z,5.87
2022-11-28T05:31:39.113Z,5.66
2022-11-28T05:32:39.062Z,6.12
2022-11-28T05:33:39.050Z,6.12
2022-11-28T05:34:39.253Z,5.98
2022-11-28T05:35:39.051Z,5.74
2022-11-28T05:36:39.108Z,5.78
2022-11-28T05:37:39.052Z,5.92
2022-11-28T05:38:39.060Z,5.83
2022-11-28T05:39:39.084Z,6.33
2022-11-28T05:40:39.076Z,6.32
2022-11-28T05:41:39.061Z,6.09
2022-11-28T05:42:39.057Z,5.91
2022-11-28T05:43:39.080Z,5.69
2022-11-28T05:44:39.070Z,5.8
2022-11-28T05:45:39.103Z,6.1
2022-11-28T05:46:39.054Z,6.03
2022-11-28T05:47:39.056Z,5.71
2022-11-28T05:48:39.060Z,6.02
2022-11-28T05:49:39.065Z,5.74
2022-11-28T05:50:40.138Z,5.74
2022-11-28T05:51:39.056Z,5.76
2022-11-28T05:52:39.059Z,6.02
2022-11-28T05:53:39.063Z,6.15
2022-11-28T05:54:39.065Z,6.05
2022-11-28T05:55:39.076Z,5.76
2022-11-28T05:56:42.353Z,5.87
2022-11-28T05:57:39.069Z,5.99
2022-11-28T05:58:39.085Z,5.95
2022-11-28T05:59:39.082Z,5.76
2022-11-28T06:00:39.091Z,5.94
2022-11-28T06:01:39.174Z,5.78
2022-11-28T06:02:39.153Z,5.61
2022-11-28T06:03:39.063Z,5.84
2022-11-28T06:04:39.143Z,5.86
2022-11-28T06:05:42.622Z,5.94
2022-11-28T06:06:39.073Z,6.35
2022-11-28T06:07:39.129Z,5.88
2022-11-28T06:08:39.057Z,5.88
2022-11-28T06:09:39.087Z,6.17
2022-11-28T06:10:39.065Z,6
2022-11-28T06:11:39.054Z,6
2022-11-28T06:12:39.065Z,5.97
2022-11-28T06:13:39.060Z,6.04
2022-11-28T06:14:39.069Z,6.38
2022-11-28T06:15:39.058Z,6.49
2022-11-28T06:16:39.277Z,6.55
2022-11-28T06:17:39.061Z,6.28
2022-11-28T06:18:39.050Z,6.08
2022-11-28T06:19:39.081Z,6.23
2022-11-28T06:20:39.056Z,5.93
2022-11-28T06:21:39.059Z,6.04
2022-11-28T06:22:39.065Z,6.01
2022-11-28T06:23:39.054Z,6.05
2022-11-28T06:24:39.265Z,6.27
2022-11-28T06:25:39.052Z,6.36
2022-11-28T06:26:39.079Z,6.38
2022-11-28T06:27:39.067Z,6.44
2022-11-28T06:28:39.065Z,6.48
2022-11-28T06:29:39.081Z,6.37
2022-11-28T06:30:39.056Z,6.49
2022-11-28T06:31:39.096Z,6.19
2022-11-28T06:32:39.067Z,6.06
2022-11-28T06:33:39.056Z,6.37
2022-11-28T06:34:39.083Z,6.38
2022-11-28T06:35:39.064Z,6.32
2022-11-28T06:36:39.071Z,6.41
2022-11-28T06:37:39.060Z,6.49
2022-11-28T06:38:39.067Z,6.61
2022-11-28T06:39:39.080Z,6.18
2022-11-28T06:40:39.051Z,6.08
2022-11-28T06:41:39.054Z,6.02
2022-11-28T06:42:39.058Z,6.05
2022-11-28T06:43:39.065Z,6.06
2022-11-28T06:44:39.096Z,6.19
2022-11-28T06:45:39.103Z,6.28
2022-11-28T06:46:39.064Z,6.28
2022-11-28T06:47:39.051Z,6.23
2022-11-28T06:48:39.062Z,6.25
2022-11-28T06:49:39.068Z,6.23
2022-11-28T06:50:39.050Z,6.23
2022-11-28T06:51:39.080Z,6.67
2022-11-28T06:52:39.048Z,6.43
2022-11-28T06:53:39.066Z,6.43
2022-11-28T06:54:39.066Z,6.44
2022-11-28T06:55:39.049Z,6.56
2022-11-28T06:56:39.057Z,6.55
2022-11-28T06:57:39.050Z,6.19
2022-11-28T06:58:39.063Z,6.53
2022-11-28T06:59:39.080Z,6.79
2022-11-28T07:00:39.068Z,6.75
2022-11-28T07:01:39.136Z,6.6
2022-11-28T07:02:39.138Z,6.89
2022-11-28T07:03:39.060Z,6.91
2022-11-28T07:04:39.072Z,6.6
2022-11-28T07:05:39.085Z,6.6
2022-11-28T07:06:39.056Z,6.93
2022-11-28T07:07:53.224Z,6.61
2022-11-28T07:08:39.061Z,6.84
2022-11-28T07:09:39.069Z,6.85
2022-11-28T07:10:39.063Z,6.78
2022-11-28T07:11:39.057Z,6.34
2022-11-28T07:12:39.067Z,6.66
2022-11-28T07:13:39.056Z,6.79
2022-11-28T07:14:39.082Z,6.61
2022-11-28T07:15:39.062Z,6.38
2022-11-28T07:16:39.129Z,6.44
2022-11-28T07:17:39.061Z,6.65
2022-11-28T07:18:39.066Z,6.57
2022-11-28T07:19:39.073Z,6.9
2022-11-28T07:20:39.062Z,6.67
2022-11-28T07:21:39.079Z,6.54
2022-11-28T07:22:39.065Z,6.81
2022-11-28T07:23:39.061Z,6.67
2022-11-28T07:24:39.082Z,6.59
2022-11-28T07:25:39.065Z,6.69
2022-11-28T07:26:39.070Z,6.73
2022-11-28T07:27:39.061Z,6.73
2022-11-28T07:28:39.066Z,6.93
2022-11-28T07:29:39.074Z,6.88
2022-11-28T07:30:39.057Z,6.78
2022-11-28T07:31:39.082Z,6.7
2022-11-28T07:32:39.057Z,6.7
2022-11-28T07:33:39.063Z,6.8
2022-11-28T07:34:39.080Z,6.75
2022-11-28T07:35:39.070Z,6.57
2022-11-28T07:36:39.062Z,6.79
2022-11-28T07:37:39.060Z,7.01
2022-11-28T07:38:39.058Z,6.92
2022-11-28T07:39:39.070Z,7.01
2022-11-28T07:40:39.058Z,6.8
2022-11-28T07:41:39.054Z,6.57
2022-11-28T07:42:39.070Z,6.78
2022-11-28T07:43:39.053Z,6.92
2022-11-28T07:44:39.069Z,6.66
2022-11-28T07:45:59.577Z,6.71
2022-11-28T07:46:39.099Z,6.77
2022-11-28T07:47:39.064Z,7.02
2022-11-28T07:48:39.062Z,6.99
2022-11-28T07:49:39.090Z,6.92
2022-11-28T07:50:39.055Z,6.79
2022-11-28T07:51:39.056Z,6.8
2022-11-28T07:52:39.055Z,6.55
2022-11-28T07:53:39.074Z,6.42
2022-11-28T07:54:39.085Z,6.69
2022-11-28T07:55:39.060Z,7.03
2022-11-28T07:57:10.823Z,7.03
2022-11-28T07:57:39.087Z,7.05
2022-11-28T07:58:39.059Z,7.23
2022-11-28T07:59:39.092Z,7.18
2022-11-28T08:00:39.061Z,7.21
2022-11-28T08:01:39.137Z,7.01
2022-11-28T08:02:39.053Z,6.66
2022-11-28T08:03:39.064Z,6.72
2022-11-28T08:04:42.616Z,6.81
2022-11-28T08:05:39.056Z,6.91
2022-11-28T08:06:39.058Z,6.72
2022-11-28T08:07:39.124Z,6.72
2022-11-28T08:08:39.048Z,7.22
2022-11-28T08:09:39.092Z,7.27
2022-11-28T08:10:39.061Z,7.3
2022-11-28T08:11:39.055Z,7.3
2022-11-28T08:12:39.048Z,7.22
2022-11-28T08:13:39.053Z,7.35
2022-11-28T08:14:39.070Z,7.25
2022-11-28T08:15:39.051Z,7.21
2022-11-28T08:16:39.072Z,7.42
2022-11-28T08:17:39.049Z,7.24
2022-11-28T08:18:39.061Z,7.32
2022-11-28T08:19:39.092Z,7.12
2022-11-28T08:20:39.049Z,6.9
2022-11-28T08:21:39.058Z,7.03
2022-11-28T08:22:39.061Z,7.2
2022-11-28T08:23:39.062Z,7.02
2022-11-28T08:24:39.073Z,7.29
2022-11-28T08:25:39.059Z,7.27
2022-11-28T08:26:39.059Z,7.36
2022-11-28T08:27:39.055Z,7.02
2022-11-28T08:28:39.066Z,7.02
2022-11-28T08:29:39.071Z,7.18
2022-11-28T08:30:39.139Z,6.9
2022-11-28T08:31:39.058Z,7.03
2022-11-28T08:32:39.062Z,7.08
2022-11-28T08:33:39.058Z,7.3
2022-11-28T08:34:39.086Z,7.43
2022-11-28T08:35:39.057Z,7.43
2022-11-28T08:36:39.069Z,7.49
2022-11-28T08:37:39.060Z,7.24
2022-11-28T08:38:39.053Z,7.31
2022-11-28T08:39:39.070Z,7.14
2022-11-28T08:40:39.058Z,7.33
2022-11-28T08:41:39.066Z,6.95
2022-11-28T08:42:39.053Z,7.01
2022-11-28T08:43:39.057Z,7.1
2022-11-28T08:44:39.100Z,7.44
2022-11-28T08:45:39.092Z,7.32
2022-11-28T08:46:39.069Z,7.14
2022-11-28T08:47:39.143Z,7.22
2022-11-28T08:48:39.063Z,6.86
2022-11-28T08:49:39.084Z,7.27
2022-11-28T08:50:42.539Z,7.57
2022-11-28T08:51:39.072Z,7.31
2022-11-28T08:52:39.072Z,7.33
2022-11-28T08:53:39.056Z,7.81
2022-11-28T08:54:39.070Z,8.09
2022-11-28T08:55:41.807Z,7.82
2022-11-28T08:56:39.066Z,7.55
2022-11-28T08:57:39.058Z,7.64
2022-11-28T08:58:39.064Z,7.43
2022-11-28T08:59:39.235Z,7.62
2022-11-28T09:00:39.061Z,7.61
2022-11-28T09:01:39.125Z,7.69
2022-11-28T09:02:39.076Z,7.4
2022-11-28T09:03:39.075Z,7.54
2022-11-28T09:04:39.067Z,7.46
2022-11-28T09:05:39.072Z,7.65
2022-11-28T09:06:39.066Z,7.65
2022-11-28T09:07:39.116Z,7.57
2022-11-28T09:08:39.066Z,7.82
2022-11-28T09:09:39.060Z,7.82
2022-11-28T09:10:39.068Z,7.88
2022-11-28T09:11:39.067Z,7.83
2022-11-28T09:12:39.057Z,7.75
2022-11-28T09:13:39.059Z,7.86
2022-11-28T09:14:39.064Z,7.85
2022-11-28T09:15:39.059Z,7.87
2022-11-28T09:16:39.151Z,8.04
2022-11-28T09:17:39.054Z,7.92
2022-11-28T09:18:39.059Z,8.23
2022-11-28T09:19:39.057Z,8.13
2022-11-28T09:20:39.066Z,8.1
2022-11-28T09:21:39.059Z,7.96
2022-11-28T09:22:39.079Z,8.19
2022-11-28T09:23:39.054Z,8.3
2022-11-28T09:24:39.050Z,8.17
2022-11-28T09:25:39.066Z,7.97
2022-11-28T09:26:39.059Z,8.23
2022-11-28T09:27:39.056Z,8.07
2022-11-28T09:28:39.059Z,7.96
2022-11-28T09:29:39.064Z,8.18
2022-11-28T09:30:39.107Z,8.1
2022-11-28T09:31:42.004Z,7.98
2022-11-28T09:32:39.200Z,7.89
2022-11-28T09:33:39.063Z,8.08
2022-11-28T09:34:39.051Z,8
2022-11-28T09:35:39.072Z,7.78
2022-11-28T09:36:39.062Z,7.59
2022-11-28T09:37:39.056Z,7.78
2022-11-28T09:38:39.053Z,7.95
2022-11-28T09:39:57.045Z,7.76
2022-11-28T09:40:39.068Z,8.05
2022-11-28T09:41:39.056Z,8.25
2022-11-28T09:42:39.066Z,8.13
2022-11-28T09:44:42.225Z,7.3
2022-11-28T09:45:40.792Z,7.67
2022-11-28T09:46:40.791Z,8
2022-11-28T09:47:40.708Z,7.92
2022-11-28T09:48:40.716Z,7.73
2022-11-28T09:49:41.437Z,7.87
2022-11-28T09:50:40.731Z,7.8
2022-11-28T09:51:40.730Z,7.78
2022-11-28T09:52:40.825Z,7.69
2022-11-28T09:53:40.714Z,7.77
2022-11-28T09:54:40.712Z,7.77
2022-11-28T09:55:40.826Z,7.79
2022-11-28T09:56:40.722Z,8.25
2022-11-28T09:57:40.724Z,8.28
2022-11-28T09:58:40.719Z,8.03
2022-11-28T09:59:41.090Z,7.87
2022-11-28T10:00:40.910Z,7.5
2022-11-28T10:01:40.716Z,7.85
2022-11-28T10:02:40.730Z,8.36
2022-11-28T10:03:40.841Z,7.92
2022-11-28T10:04:40.820Z,7.68
2022-11-28T10:05:40.731Z,7.82
2022-11-28T10:06:40.715Z,7.7
2022-11-28T10:07:40.760Z,7.7
2022-11-28T10:08:40.708Z,7.7
2022-11-28T10:09:40.987Z,8.02
2022-11-28T10:10:40.732Z,7.9
2022-11-28T10:11:40.714Z,8.32
2022-11-28T10:12:40.718Z,8.2
2022-11-28T10:14:05.929Z,8.42
2022-11-28T10:14:40.716Z,8.07
2022-11-28T10:15:40.802Z,8.19
2022-11-28T10:16:40.822Z,8.19
2022-11-28T10:17:40.720Z,8.38
2022-11-28T10:18:40.701Z,8.64
2022-11-28T10:19:53.718Z,8.73
2022-11-28T10:20:41.094Z,8.73
2022-11-28T10:21:40.728Z,8.32
2022-11-28T10:22:40.773Z,7.5
2022-11-28T10:23:40.709Z,7.77
2022-11-28T10:24:40.711Z,8.13
2022-11-28T10:25:40.806Z,8.13
2022-11-28T10:26:40.697Z,8.17
2022-11-28T10:27:40.688Z,8.17
2022-11-28T10:28:40.699Z,8.14
2022-11-28T10:29:41.112Z,8.28
2022-11-28T10:30:40.814Z,8.25
2022-11-28T10:31:40.695Z,8.25
2022-11-28T10:32:40.701Z,8.41
2022-11-28T10:33:40.715Z,8.47
2022-11-28T10:34:40.704Z,8.47
2022-11-28T10:35:40.725Z,8.16
2022-11-28T10:36:40.687Z,8.06
2022-11-28T10:37:40.695Z,7.85
2022-11-28T10:38:40.690Z,7.85
2022-11-28T10:39:40.826Z,8.2
2022-11-28T10:40:40.747Z,8.16
2022-11-28T10:41:40.689Z,8.14
2022-11-28T10:42:40.694Z,8.36
2022-11-28T10:43:40.696Z,8.37
2022-11-28T10:44:40.692Z,8.13
2022-11-28T10:45:40.795Z,8.01
2022-11-28T10:46:40.768Z,7.94
2022-11-28T10:47:40.728Z,7.99
2022-11-28T10:48:41.269Z,8.1
2022-11-28T10:49:41.105Z,8.35
2022-11-28T10:50:40.728Z,8.35
2022-11-28T10:51:40.719Z,7.93
2022-11-28T10:52:41.021Z,8.1
2022-11-28T10:53:40.714Z,8.03
2022-11-28T10:54:40.752Z,7.6
2022-11-28T10:55:40.784Z,8.17
2022-11-28T10:56:40.712Z,8.24
2022-11-28T10:57:40.704Z,8.1
2022-11-28T10:58:40.703Z,7.92
2022-11-28T10:59:41.000Z,7.89
2022-11-28T11:00:40.714Z,7.89
2022-11-28T11:01:42.112Z,8.15
2022-11-28T11:02:40.721Z,7.95
2022-11-28T11:03:40.709Z,8.03
2022-11-28T11:04:40.886Z,7.96
2022-11-28T11:05:40.722Z,8.29
2022-11-28T11:06:47.616Z,8.31
2022-11-28T11:07:40.756Z,8.51
2022-11-28T11:08:40.708Z,8.54
2022-11-28T11:09:41.132Z,8.55
2022-11-28T11:10:40.724Z,8.55
2022-11-28T11:11:40.703Z,8.78
2022-11-28T11:12:40.702Z,8.19
2022-11-28T11:13:40.709Z,8.34
2022-11-28T11:14:40.737Z,8.31
2022-11-28T11:15:40.768Z,8.3
2022-11-28T11:16:40.715Z,8.42
2022-11-28T11:17:40.690Z,8.42
2022-11-28T11:18:40.699Z,8.52
2022-11-28T11:19:41.504Z,8.63
2022-11-28T11:20:40.729Z,8.63
2022-11-28T11:21:40.707Z,8.42
2022-11-28T11:22:41.024Z,8.34
2022-11-28T11:23:40.711Z,8.32
2022-11-28T11:24:40.714Z,8.18
2022-11-28T11:25:40.716Z,8.18
2022-11-28T11:26:40.710Z,8.54
2022-11-28T11:27:40.705Z,8.54
2022-11-28T11:28:40.739Z,8.26
2022-11-28T11:29:41.220Z,8.42
2022-11-28T11:30:40.768Z,8.42
2022-11-28T11:31:40.704Z,7.93
2022-11-28T11:32:40.706Z,8.26
2022-11-28T11:33:40.691Z,8.7
2022-11-28T11:34:40.699Z,8.59
2022-11-28T11:35:40.722Z,8.3
2022-11-28T11:36:40.821Z,8.43
2022-11-28T11:37:40.692Z,8.29
2022-11-28T11:38:40.695Z,8.25
2022-11-28T11:39:41.154Z,8.24
2022-11-28T11:40:40.754Z,8.05
2022-11-28T11:41:40.696Z,8.22
2022-11-28T11:42:40.696Z,8.46
2022-11-28T11:43:40.705Z,8.71
2022-11-28T11:44:40.895Z,8.49
2022-11-28T11:45:40.730Z,8.44
2022-11-28T11:46:40.866Z,8.11
2022-11-28T11:47:40.959Z,7.96
2022-11-28T11:48:40.689Z,8.08
2022-11-28T11:49:41.034Z,7.88
2022-11-28T11:50:40.708Z,8.32
2022-11-28T11:51:40.720Z,8
2022-11-28T11:52:41.125Z,8.13
2022-11-28T11:53:40.722Z,7.84
2022-11-28T11:54:40.708Z,7.96
2022-11-28T11:55:40.722Z,8.32
2022-11-28T11:56:40.785Z,8.59
2022-11-28T11:57:41.099Z,8.68
2022-11-28T11:58:40.708Z,8.62
2022-11-28T11:59:41.070Z,8.41
2022-11-28T12:00:40.730Z,8.41
2022-11-28T12:01:40.702Z,8.15
2022-11-28T12:02:41.129Z,8.15
2022-11-28T12:03:40.934Z,8.22
2022-11-28T12:04:47.125Z,8.25
2022-11-28T12:06:06.201Z,8.36
2022-11-28T12:06:40.715Z,8.36
2022-11-28T12:07:41.067Z,8.82
2022-11-28T12:08:40.703Z,8.21
2022-11-28T12:09:40.700Z,8.55
2022-11-28T12:10:40.736Z,8.55
2022-11-28T12:11:45.627Z,8.44
2022-11-28T12:12:40.718Z,8.44
2022-11-28T12:13:40.699Z,8.64
2022-11-28T12:14:40.706Z,8.72
2022-11-28T12:15:40.784Z,8.52
2022-11-28T12:16:40.783Z,8.51
2022-11-28T12:17:48.925Z,8.33
2022-11-28T12:18:40.708Z,8.51
2022-11-28T12:19:40.709Z,8.74
2022-11-28T12:20:40.719Z,8.74
2022-11-28T12:21:40.709Z,8.68
2022-11-28T12:22:40.700Z,8.81
2022-11-28T12:23:40.715Z,8.94
2022-11-28T12:24:40.712Z,8.91
2022-11-28T12:25:40.721Z,9.01
2022-11-28T12:26:40.694Z,8.89
2022-11-28T12:27:40.717Z,8.87
2022-11-28T12:28:40.719Z,8.73
2022-11-28T12:29:40.712Z,8.72
2022-11-28T12:30:43.433Z,8.72
2022-11-28T12:31:40.779Z,8.43
2022-11-28T12:32:40.699Z,8.49
2022-11-28T12:33:40.721Z,8.54
2022-11-28T12:34:40.716Z,8.48
2022-11-28T12:35:40.711Z,8.53
2022-11-28T12:36:40.705Z,8.5
2022-11-28T12:38:03.018Z,8.5
2022-11-28T12:38:40.689Z,8.78
2022-11-28T12:39:40.748Z,8.55
2022-11-28T12:40:40.729Z,8.49
2022-11-28T12:41:40.793Z,8.5
2022-11-28T12:42:40.772Z,8.64
2022-11-28T12:43:40.701Z,8.7
2022-11-28T12:44:40.693Z,8.66
2022-11-28T12:45:40.698Z,8.85
2022-11-28T12:46:40.797Z,8.88
2022-11-28T12:47:40.681Z,8.8
2022-11-28T12:48:40.696Z,8.33
2022-11-28T12:49:40.691Z,8.51
2022-11-28T12:50:40.738Z,8.62
2022-11-28T12:51:40.697Z,8.59
2022-11-28T12:52:40.691Z,8.69
2022-11-28T12:53:40.707Z,8.5
2022-11-28T12:54:40.696Z,8.72
2022-11-28T12:55:40.719Z,8.91
2022-11-28T12:56:40.727Z,8.98
2022-11-28T12:57:40.689Z,8.77
2022-11-28T12:58:40.713Z,8.92
2022-11-28T12:59:40.689Z,8.98
2022-11-28T13:00:40.708Z,8.98
2022-11-28T13:01:40.765Z,8.83
2022-11-28T13:02:41.054Z,8.72
2022-11-28T13:03:40.709Z,8.94
2022-11-28T13:04:40.832Z,8.81
2022-11-28T13:05:40.721Z,8.58
2022-11-28T13:06:40.720Z,8.5
2022-11-28T13:07:40.833Z,8.57
2022-11-28T13:08:46.491Z,8.33
2022-11-28T13:09:40.776Z,8.54
2022-11-28T13:10:40.706Z,8.54
2022-11-28T13:11:40.700Z,8.77
2022-11-28T13:12:40.800Z,8.31
2022-11-28T13:13:40.696Z,8.51
2022-11-28T13:14:40.709Z,8.52
2022-11-28T13:15:40.821Z,8.69
2022-11-28T13:16:40.800Z,8.96
2022-11-28T13:17:40.709Z,8.78
2022-11-28T13:18:40.703Z,8.78
2022-11-28T13:19:40.711Z,8.78
2022-11-28T13:20:40.714Z,8.78
2022-11-28T13:21:40.717Z,8.61
2022-11-28T13:22:40.705Z,8.44